sensor_id;sensor_type;location;lat;lon;timestamp;temperature;humidity
47174;DHT22;36730;49.036;9.094;2023-07-22T00:01:05;24.80;67.10
47174;DHT22;36730;49.036;9.094;2023-07-22T00:03:31;24.80;67.00
47174;DHT22;36730;49.036;9.094;2023-07-22T00:06:03;24.80;67.00
47174;DHT22;36730;49.036;9.094;2023-07-22T00:08:28;24.80;66.90
47174;DHT22;36730;49.036;9.094;2023-07-22T00:10:54;24.80;66.80
47174;DHT22;36730;49.036;9.094;2023-07-22T00:13:19;24.80;66.70
47174;DHT22;36730;49.036;9.094;2023-07-22T00:15:45;24.90;66.90
47174;DHT22;36730;49.036;9.094;2023-07-22T00:18:10;24.90;66.80
47174;DHT22;36730;49.036;9.094;2023-07-22T00:20:36;24.90;66.70
47174;DHT22;36730;49.036;9.094;2023-07-22T00:23:01;24.80;66.70
47174;DHT22;36730;49.036;9.094;2023-07-22T00:25:27;24.80;66.70
47174;DHT22;36730;49.036;9.094;2023-07-22T00:27:52;24.80;66.80
47174;DHT22;36730;49.036;9.094;2023-07-22T00:30:18;24.80;67.10
47174;DHT22;36730;49.036;9.094;2023-07-22T00:32:43;24.80;66.80
47174;DHT22;36730;49.036;9.094;2023-07-22T00:35:09;24.80;66.80
47174;DHT22;36730;49.036;9.094;2023-07-22T00:37:37;24.80;66.90
47174;DHT22;36730;49.036;9.094;2023-07-22T00:40:03;24.80;67.00
47174;DHT22;36730;49.036;9.094;2023-07-22T00:42:37;24.70;67.10
47174;DHT22;36730;49.036;9.094;2023-07-22T00:45:02;24.80;67.40
47174;DHT22;36730;49.036;9.094;2023-07-22T00:47:28;24.80;67.00
47174;DHT22;36730;49.036;9.094;2023-07-22T00:49:53;24.80;67.00
47174;DHT22;36730;49.036;9.094;2023-07-22T00:52:19;24.80;67.00
47174;DHT22;36730;49.036;9.094;2023-07-22T00:54:45;24.80;67.10
47174;DHT22;36730;49.036;9.094;2023-07-22T00:57:10;24.70;67.00
47174;DHT22;36730;49.036;9.094;2023-07-22T00:59:37;24.80;67.10
47174;DHT22;36730;49.036;9.094;2023-07-22T01:02:03;24.70;67.10
47174;DHT22;36730;49.036;9.094;2023-07-22T01:04:29;24.70;67.20
47174;DHT22;36730;49.036;9.094;2023-07-22T01:06:58;24.70;67.30
47174;DHT22;36730;49.036;9.094;2023-07-22T01:09:24;24.70;67.30
47174;DHT22;36730;49.036;9.094;2023-07-22T01:11:49;24.70;67.30
47174;DHT22;36730;49.036;9.094;2023-07-22T01:14:15;24.70;67.30
47174;DHT22;36730;49.036;9.094;2023-07-22T01:16:40;24.70;67.40
47174;DHT22;36730;49.036;9.094;2023-07-22T01:19:06;24.70;67.60
47174;DHT22;36730;49.036;9.094;2023-07-22T01:21:32;24.80;67.00
47174;DHT22;36730;49.036;9.094;2023-07-22T01:23:57;24.70;67.00
47174;DHT22;36730;49.036;9.094;2023-07-22T01:26:23;24.80;66.90
47174;DHT22;36730;49.036;9.094;2023-07-22T01:28:49;24.80;67.10
47174;DHT22;36730;49.036;9.094;2023-07-22T01:31:14;24.70;66.90
47174;DHT22;36730;49.036;9.094;2023-07-22T01:33:39;24.70;67.00
47174;DHT22;36730;49.036;9.094;2023-07-22T01:36:05;24.70;67.50
47174;DHT22;36730;49.036;9.094;2023-07-22T01:38:30;24.70;67.20
47174;DHT22;36730;49.036;9.094;2023-07-22T01:40:56;24.70;67.10
47174;DHT22;36730;49.036;9.094;2023-07-22T01:43:22;24.60;67.10
47174;DHT22;36730;49.036;9.094;2023-07-22T01:45:47;24.60;67.20
47174;DHT22;36730;49.036;9.094;2023-07-22T01:48:13;24.60;68.20
47174;DHT22;36730;49.036;9.094;2023-07-22T01:50:38;24.60;67.30
47174;DHT22;36730;49.036;9.094;2023-07-22T01:53:04;24.60;67.40
47174;DHT22;36730;49.036;9.094;2023-07-22T01:55:31;24.60;67.30
47174;DHT22;36730;49.036;9.094;2023-07-22T01:57:57;24.50;67.30
47174;DHT22;36730;49.036;9.094;2023-07-22T02:00:23;24.50;67.50
47174;DHT22;36730;49.036;9.094;2023-07-22T02:02:48;24.50;67.50
47174;DHT22;36730;49.036;9.094;2023-07-22T02:05:14;24.50;67.60
47174;DHT22;36730;49.036;9.094;2023-07-22T02:07:39;24.50;67.50
47174;DHT22;36730;49.036;9.094;2023-07-22T02:10:05;24.50;67.50
47174;DHT22;36730;49.036;9.094;2023-07-22T02:12:31;24.50;67.60
47174;DHT22;36730;49.036;9.094;2023-07-22T02:14:56;24.50;67.60
47174;DHT22;36730;49.036;9.094;2023-07-22T02:17:21;24.40;67.50
47174;DHT22;36730;49.036;9.094;2023-07-22T02:19:48;24.40;67.60
47174;DHT22;36730;49.036;9.094;2023-07-22T02:22:14;24.40;67.60
47174;DHT22;36730;49.036;9.094;2023-07-22T02:24:40;24.40;67.50
47174;DHT22;36730;49.036;9.094;2023-07-22T02:27:05;24.40;67.80
47174;DHT22;36730;49.036;9.094;2023-07-22T02:29:31;24.40;67.40
47174;DHT22;36730;49.036;9.094;2023-07-22T02:31:56;24.40;67.40
47174;DHT22;36730;49.036;9.094;2023-07-22T02:34:23;24.40;67.30
47174;DHT22;36730;49.036;9.094;2023-07-22T02:36:48;24.40;67.30
47174;DHT22;36730;49.036;9.094;2023-07-22T02:39:14;24.40;67.40
47174;DHT22;36730;49.036;9.094;2023-07-22T02:41:39;24.30;67.30
47174;DHT22;36730;49.036;9.094;2023-07-22T02:44:05;24.30;67.30
47174;DHT22;36730;49.036;9.094;2023-07-22T02:46:30;24.30;67.30
47174;DHT22;36730;49.036;9.094;2023-07-22T02:48:57;24.30;67.20
47174;DHT22;36730;49.036;9.094;2023-07-22T02:51:22;24.30;67.20
47174;DHT22;36730;49.036;9.094;2023-07-22T02:53:48;24.30;67.30
47174;DHT22;36730;49.036;9.094;2023-07-22T02:56:13;24.30;67.20
47174;DHT22;36730;49.036;9.094;2023-07-22T02:58:39;24.20;67.20
47174;DHT22;36730;49.036;9.094;2023-07-22T03:01:04;24.30;67.30
47174;DHT22;36730;49.036;9.094;2023-07-22T03:03:33;24.20;67.10
47174;DHT22;36730;49.036;9.094;2023-07-22T03:05:59;24.20;67.00
47174;DHT22;36730;49.036;9.094;2023-07-22T03:08:25;24.20;67.10
47174;DHT22;36730;49.036;9.094;2023-07-22T03:10:51;24.20;67.20
47174;DHT22;36730;49.036;9.094;2023-07-22T03:13:16;24.20;67.60
47174;DHT22;36730;49.036;9.094;2023-07-22T03:15:42;24.20;66.70
47174;DHT22;36730;49.036;9.094;2023-07-22T03:18:08;24.20;66.80
47174;DHT22;36730;49.036;9.094;2023-07-22T03:20:38;24.20;66.70
47174;DHT22;36730;49.036;9.094;2023-07-22T03:23:04;24.20;66.60
47174;DHT22;36730;49.036;9.094;2023-07-22T03:25:30;24.20;66.30
47174;DHT22;36730;49.036;9.094;2023-07-22T03:27:56;24.20;66.10
47174;DHT22;36730;49.036;9.094;2023-07-22T03:30:22;24.20;66.10
47174;DHT22;36730;49.036;9.094;2023-07-22T03:32:48;24.20;66.00
47174;DHT22;36730;49.036;9.094;2023-07-22T03:35:16;24.20;65.70
47174;DHT22;36730;49.036;9.094;2023-07-22T03:37:41;24.20;65.60
47174;DHT22;36730;49.036;9.094;2023-07-22T03:40:07;24.10;65.70
47174;DHT22;36730;49.036;9.094;2023-07-22T03:42:49;24.10;65.60
47174;DHT22;36730;49.036;9.094;2023-07-22T03:45:14;24.10;65.60
47174;DHT22;36730;49.036;9.094;2023-07-22T03:47:40;24.10;65.40
47174;DHT22;36730;49.036;9.094;2023-07-22T03:50:06;24.00;65.40
47174;DHT22;36730;49.036;9.094;2023-07-22T03:52:32;24.00;65.30
47174;DHT22;36730;49.036;9.094;2023-07-22T03:54:57;24.00;65.20
47174;DHT22;36730;49.036;9.094;2023-07-22T03:57:26;24.00;65.20
47174;DHT22;36730;49.036;9.094;2023-07-22T03:59:53;24.00;65.50
47174;DHT22;36730;49.036;9.094;2023-07-22T04:02:18;24.00;65.20
47174;DHT22;36730;49.036;9.094;2023-07-22T04:04:44;23.90;65.50
47174;DHT22;36730;49.036;9.094;2023-07-22T04:07:09;23.90;65.50
47174;DHT22;36730;49.036;9.094;2023-07-22T04:09:35;23.90;65.30
47174;DHT22;36730;49.036;9.094;2023-07-22T04:12:00;23.90;65.00
47174;DHT22;36730;49.036;9.094;2023-07-22T04:14:26;23.80;64.90
47174;DHT22;36730;49.036;9.094;2023-07-22T04:16:51;23.80;65.20
47174;DHT22;36730;49.036;9.094;2023-07-22T04:19:17;23.80;65.20
47174;DHT22;36730;49.036;9.094;2023-07-22T04:21:42;23.80;65.50
47174;DHT22;36730;49.036;9.094;2023-07-22T04:24:08;23.70;65.40
47174;DHT22;36730;49.036;9.094;2023-07-22T04:26:35;23.70;65.70
47174;DHT22;36730;49.036;9.094;2023-07-22T04:29:01;23.70;65.50
47174;DHT22;36730;49.036;9.094;2023-07-22T04:31:26;23.70;65.70
47174;DHT22;36730;49.036;9.094;2023-07-22T04:33:52;23.70;65.60
47174;DHT22;36730;49.036;9.094;2023-07-22T04:36:17;23.60;66.10
47174;DHT22;36730;49.036;9.094;2023-07-22T04:38:43;23.50;66.40
47174;DHT22;36730;49.036;9.094;2023-07-22T04:41:08;23.50;67.70
47174;DHT22;36730;49.036;9.094;2023-07-22T04:43:34;23.40;67.40
47174;DHT22;36730;49.036;9.094;2023-07-22T04:45:59;23.30;67.50
47174;DHT22;36730;49.036;9.094;2023-07-22T04:48:25;23.20;68.70
47174;DHT22;36730;49.036;9.094;2023-07-22T04:50:51;23.10;70.70
47174;DHT22;36730;49.036;9.094;2023-07-22T04:53:17;23.00;68.80
47174;DHT22;36730;49.036;9.094;2023-07-22T04:55:43;23.00;69.00
47174;DHT22;36730;49.036;9.094;2023-07-22T04:58:08;22.90;69.30
47174;DHT22;36730;49.036;9.094;2023-07-22T05:00:35;22.90;70.30
47174;DHT22;36730;49.036;9.094;2023-07-22T05:03:02;22.90;70.00
47174;DHT22;36730;49.036;9.094;2023-07-22T05:05:28;22.80;71.30
47174;DHT22;36730;49.036;9.094;2023-07-22T05:07:53;22.80;71.00
47174;DHT22;36730;49.036;9.094;2023-07-22T05:10:19;22.70;71.10
47174;DHT22;36730;49.036;9.094;2023-07-22T05:12:45;22.70;71.20
47174;DHT22;36730;49.036;9.094;2023-07-22T05:15:11;22.70;71.30
47174;DHT22;36730;49.036;9.094;2023-07-22T05:17:37;22.60;71.60
47174;DHT22;36730;49.036;9.094;2023-07-22T05:20:02;22.60;71.80
47174;DHT22;36730;49.036;9.094;2023-07-22T05:22:31;22.60;71.90
47174;DHT22;36730;49.036;9.094;2023-07-22T05:24:57;22.60;72.60
47174;DHT22;36730;49.036;9.094;2023-07-22T05:27:22;22.60;72.00
47174;DHT22;36730;49.036;9.094;2023-07-22T05:29:48;22.60;73.10
47174;DHT22;36730;49.036;9.094;2023-07-22T05:32:13;22.50;72.80
47174;DHT22;36730;49.036;9.094;2023-07-22T05:34:38;22.50;73.70
47174;DHT22;36730;49.036;9.094;2023-07-22T05:37:04;22.50;73.50
47174;DHT22;36730;49.036;9.094;2023-07-22T05:39:30;22.50;74.50
47174;DHT22;36730;49.036;9.094;2023-07-22T05:41:55;22.50;74.00
47174;DHT22;36730;49.036;9.094;2023-07-22T05:44:21;22.40;75.00
47174;DHT22;36730;49.036;9.094;2023-07-22T05:46:46;22.40;74.60
47174;DHT22;36730;49.036;9.094;2023-07-22T05:49:12;22.50;74.50
47174;DHT22;36730;49.036;9.094;2023-07-22T05:51:37;22.50;74.50
47174;DHT22;36730;49.036;9.094;2023-07-22T05:54:03;22.50;74.60
47174;DHT22;36730;49.036;9.094;2023-07-22T05:56:28;22.50;75.00
47174;DHT22;36730;49.036;9.094;2023-07-22T05:58:54;22.60;75.90
47174;DHT22;36730;49.036;9.094;2023-07-22T06:01:19;22.50;75.30
47174;DHT22;36730;49.036;9.094;2023-07-22T06:03:45;22.40;75.80
47174;DHT22;36730;49.036;9.094;2023-07-22T06:06:10;22.40;76.00
47174;DHT22;36730;49.036;9.094;2023-07-22T06:08:36;22.40;76.10
47174;DHT22;36730;49.036;9.094;2023-07-22T06:11:01;22.40;76.40
47174;DHT22;36730;49.036;9.094;2023-07-22T06:13:27;22.50;76.80
47174;DHT22;36730;49.036;9.094;2023-07-22T06:15:52;22.50;76.50
47174;DHT22;36730;49.036;9.094;2023-07-22T06:18:18;22.50;75.60
47174;DHT22;36730;49.036;9.094;2023-07-22T06:20:44;22.60;75.30
47174;DHT22;36730;49.036;9.094;2023-07-22T06:23:09;22.60;75.60
47174;DHT22;36730;49.036;9.094;2023-07-22T06:25:35;22.60;75.60
47174;DHT22;36730;49.036;9.094;2023-07-22T06:28:00;22.60;75.50
47174;DHT22;36730;49.036;9.094;2023-07-22T06:30:26;22.60;75.60
47174;DHT22;36730;49.036;9.094;2023-07-22T06:32:51;22.60;75.20
47174;DHT22;36730;49.036;9.094;2023-07-22T06:35:17;22.60;74.90
47174;DHT22;36730;49.036;9.094;2023-07-22T06:37:42;22.60;74.90
47174;DHT22;36730;49.036;9.094;2023-07-22T06:40:08;22.60;75.30
47174;DHT22;36730;49.036;9.094;2023-07-22T06:42:34;22.70;77.30
47174;DHT22;36730;49.036;9.094;2023-07-22T06:44:59;22.70;75.50
47174;DHT22;36730;49.036;9.094;2023-07-22T06:47:25;22.70;75.20
47174;DHT22;36730;49.036;9.094;2023-07-22T06:49:50;22.80;75.60
47174;DHT22;36730;49.036;9.094;2023-07-22T06:52:16;22.80;75.70
47174;DHT22;36730;49.036;9.094;2023-07-22T06:54:41;22.80;76.00
47174;DHT22;36730;49.036;9.094;2023-07-22T06:57:07;22.90;76.10
47174;DHT22;36730;49.036;9.094;2023-07-22T06:59:33;22.90;76.00
47174;DHT22;36730;49.036;9.094;2023-07-22T07:01:58;23.00;77.30
47174;DHT22;36730;49.036;9.094;2023-07-22T07:04:24;23.00;75.90
47174;DHT22;36730;49.036;9.094;2023-07-22T07:06:50;23.00;75.90
47174;DHT22;36730;49.036;9.094;2023-07-22T07:09:16;23.00;75.30
47174;DHT22;36730;49.036;9.094;2023-07-22T07:11:41;23.00;75.50
47174;DHT22;36730;49.036;9.094;2023-07-22T07:14:07;23.10;75.40
47174;DHT22;36730;49.036;9.094;2023-07-22T07:16:32;23.20;76.80
47174;DHT22;36730;49.036;9.094;2023-07-22T07:18:59;23.20;75.20
47174;DHT22;36730;49.036;9.094;2023-07-22T07:21:25;23.20;74.50
47174;DHT22;36730;49.036;9.094;2023-07-22T07:23:50;23.20;75.00
47174;DHT22;36730;49.036;9.094;2023-07-22T07:26:16;23.30;74.80
47174;DHT22;36730;49.036;9.094;2023-07-22T07:28:42;23.20;76.00
47174;DHT22;36730;49.036;9.094;2023-07-22T07:31:07;23.30;74.10
47174;DHT22;36730;49.036;9.094;2023-07-22T07:33:33;23.30;74.20
47174;DHT22;36730;49.036;9.094;2023-07-22T07:35:58;23.30;74.40
47174;DHT22;36730;49.036;9.094;2023-07-22T07:38:24;23.30;74.60
47174;DHT22;36730;49.036;9.094;2023-07-22T07:40:53;23.30;74.20
47174;DHT22;36730;49.036;9.094;2023-07-22T07:43:19;23.30;74.10
47174;DHT22;36730;49.036;9.094;2023-07-22T07:45:44;23.40;73.90
47174;DHT22;36730;49.036;9.094;2023-07-22T07:48:10;23.40;73.80
47174;DHT22;36730;49.036;9.094;2023-07-22T07:50:35;23.50;72.80
47174;DHT22;36730;49.036;9.094;2023-07-22T07:53:01;23.50;72.70
47174;DHT22;36730;49.036;9.094;2023-07-22T07:55:26;23.60;72.40
47174;DHT22;36730;49.036;9.094;2023-07-22T07:57:52;23.60;72.20
47174;DHT22;36730;49.036;9.094;2023-07-22T08:00:17;23.60;71.30
47174;DHT22;36730;49.036;9.094;2023-07-22T08:02:43;23.60;71.20
47174;DHT22;36730;49.036;9.094;2023-07-22T08:05:08;23.70;70.50
47174;DHT22;36730;49.036;9.094;2023-07-22T08:07:34;23.70;70.40
47174;DHT22;36730;49.036;9.094;2023-07-22T08:10:00;23.70;69.40
47174;DHT22;36730;49.036;9.094;2023-07-22T08:12:26;23.80;69.40
47174;DHT22;36730;49.036;9.094;2023-07-22T08:14:52;23.80;68.60
47174;DHT22;36730;49.036;9.094;2023-07-22T08:17:18;23.80;68.40
47174;DHT22;36730;49.036;9.094;2023-07-22T08:19:43;23.90;68.30
47174;DHT22;36730;49.036;9.094;2023-07-22T08:22:09;23.90;68.30
47174;DHT22;36730;49.036;9.094;2023-07-22T08:24:35;24.00;67.90
47174;DHT22;36730;49.036;9.094;2023-07-22T08:27:00;24.10;67.80
47174;DHT22;36730;49.036;9.094;2023-07-22T08:29:25;24.10;67.30
47174;DHT22;36730;49.036;9.094;2023-07-22T08:31:51;24.10;66.90
47174;DHT22;36730;49.036;9.094;2023-07-22T08:34:16;24.20;66.50
47174;DHT22;36730;49.036;9.094;2023-07-22T08:36:42;24.20;66.50
47174;DHT22;36730;49.036;9.094;2023-07-22T08:39:07;24.20;65.60
47174;DHT22;36730;49.036;9.094;2023-07-22T08:41:35;24.20;66.00
47174;DHT22;36730;49.036;9.094;2023-07-22T08:44:01;24.30;65.70
47174;DHT22;36730;49.036;9.094;2023-07-22T08:46:28;24.30;64.80
47174;DHT22;36730;49.036;9.094;2023-07-22T08:48:55;24.40;64.50
47174;DHT22;36730;49.036;9.094;2023-07-22T08:51:21;24.40;64.40
47174;DHT22;36730;49.036;9.094;2023-07-22T08:53:48;24.40;63.90
47174;DHT22;36730;49.036;9.094;2023-07-22T08:56:14;24.50;64.00
47174;DHT22;36730;49.036;9.094;2023-07-22T08:58:41;24.50;63.00
47174;DHT22;36730;49.036;9.094;2023-07-22T09:01:07;24.50;63.10
47174;DHT22;36730;49.036;9.094;2023-07-22T09:03:33;24.60;63.40
47174;DHT22;36730;49.036;9.094;2023-07-22T09:05:58;24.60;62.90
47174;DHT22;36730;49.036;9.094;2023-07-22T09:08:24;24.70;62.80
47174;DHT22;36730;49.036;9.094;2023-07-22T09:10:50;24.70;62.70
47174;DHT22;36730;49.036;9.094;2023-07-22T09:13:15;24.80;62.30
47174;DHT22;36730;49.036;9.094;2023-07-22T09:15:42;24.80;62.60
47174;DHT22;36730;49.036;9.094;2023-07-22T09:18:08;24.90;62.00
47174;DHT22;36730;49.036;9.094;2023-07-22T09:20:33;24.90;61.60
47174;DHT22;36730;49.036;9.094;2023-07-22T09:22:59;25.00;61.60
47174;DHT22;36730;49.036;9.094;2023-07-22T09:25:26;25.10;61.30
47174;DHT22;36730;49.036;9.094;2023-07-22T09:27:53;25.10;60.90
47174;DHT22;36730;49.036;9.094;2023-07-22T09:32:45;25.20;60.70
47174;DHT22;36730;49.036;9.094;2023-07-22T09:35:10;25.20;60.90
47174;DHT22;36730;49.036;9.094;2023-07-22T09:37:36;25.30;60.60
47174;DHT22;36730;49.036;9.094;2023-07-22T09:40:16;25.30;59.90
47174;DHT22;36730;49.036;9.094;2023-07-22T09:42:43;25.30;59.90
47174;DHT22;36730;49.036;9.094;2023-07-22T09:45:09;25.30;59.10
47174;DHT22;36730;49.036;9.094;2023-07-22T09:47:41;25.30;59.40
47174;DHT22;36730;49.036;9.094;2023-07-22T09:50:10;25.30;60.00
47174;DHT22;36730;49.036;9.094;2023-07-22T09:52:40;25.30;60.00
47174;DHT22;36730;49.036;9.094;2023-07-22T09:55:06;25.30;60.20
47174;DHT22;36730;49.036;9.094;2023-07-22T09:57:33;25.30;60.30
47174;DHT22;36730;49.036;9.094;2023-07-22T09:59:59;25.30;60.70
47174;DHT22;36730;49.036;9.094;2023-07-22T10:02:24;25.40;59.90
47174;DHT22;36730;49.036;9.094;2023-07-22T10:04:51;25.40;59.60
47174;DHT22;36730;49.036;9.094;2023-07-22T10:07:17;25.40;59.10
47174;DHT22;36730;49.036;9.094;2023-07-22T10:09:43;25.40;58.80
47174;DHT22;36730;49.036;9.094;2023-07-22T10:12:10;25.50;59.20
47174;DHT22;36730;49.036;9.094;2023-07-22T10:14:36;25.60;58.80
47174;DHT22;36730;49.036;9.094;2023-07-22T10:17:02;25.60;58.40
47174;DHT22;36730;49.036;9.094;2023-07-22T10:19:28;25.70;57.90
47174;DHT22;36730;49.036;9.094;2023-07-22T10:21:55;25.70;57.50
47174;DHT22;36730;49.036;9.094;2023-07-22T10:24:20;25.70;56.80
47174;DHT22;36730;49.036;9.094;2023-07-22T10:26:46;25.80;57.60
47174;DHT22;36730;49.036;9.094;2023-07-22T10:29:16;25.80;56.10
47174;DHT22;36730;49.036;9.094;2023-07-22T10:31:43;25.90;56.40
47174;DHT22;36730;49.036;9.094;2023-07-22T10:34:08;26.00;56.30
47174;DHT22;36730;49.036;9.094;2023-07-22T10:36:34;26.10;56.00
47174;DHT22;36730;49.036;9.094;2023-07-22T10:39:00;26.10;56.00
47174;DHT22;36730;49.036;9.094;2023-07-22T10:41:26;26.10;55.60
47174;DHT22;36730;49.036;9.094;2023-07-22T10:43:55;26.20;55.80
47174;DHT22;36730;49.036;9.094;2023-07-22T10:49:17;26.20;54.50
47174;DHT22;36730;49.036;9.094;2023-07-22T10:51:49;26.30;54.80
47174;DHT22;36730;49.036;9.094;2023-07-22T10:54:15;26.30;54.30
47174;DHT22;36730;49.036;9.094;2023-07-22T10:56:56;26.30;54.70
47174;DHT22;36730;49.036;9.094;2023-07-22T10:59:32;26.40;54.60
47174;DHT22;36730;49.036;9.094;2023-07-22T11:01:59;26.50;55.00
47174;DHT22;36730;49.036;9.094;2023-07-22T11:04:25;26.60;55.00
47174;DHT22;36730;49.036;9.094;2023-07-22T11:12:01;26.70;54.70
47174;DHT22;36730;49.036;9.094;2023-07-22T11:14:28;26.80;54.10
47174;DHT22;36730;49.036;9.094;2023-07-22T11:16:53;26.80;54.10
47174;DHT22;36730;49.036;9.094;2023-07-22T11:19:20;26.90;53.90
47174;DHT22;36730;49.036;9.094;2023-07-22T11:21:46;26.90;54.30
47174;DHT22;36730;49.036;9.094;2023-07-22T11:24:12;26.90;54.00
47174;DHT22;36730;49.036;9.094;2023-07-22T11:26:39;27.00;53.80
47174;DHT22;36730;49.036;9.094;2023-07-22T11:29:06;27.00;54.10
47174;DHT22;36730;49.036;9.094;2023-07-22T11:33:57;27.10;53.70
47174;DHT22;36730;49.036;9.094;2023-07-22T11:36:23;27.20;53.60
47174;DHT22;36730;49.036;9.094;2023-07-22T11:38:48;27.20;53.40
47174;DHT22;36730;49.036;9.094;2023-07-22T11:41:13;27.20;53.20
47174;DHT22;36730;49.036;9.094;2023-07-22T11:43:40;27.20;52.60
47174;DHT22;36730;49.036;9.094;2023-07-22T11:46:05;27.30;52.80
47174;DHT22;36730;49.036;9.094;2023-07-22T11:48:31;27.20;53.30
47174;DHT22;36730;49.036;9.094;2023-07-22T11:51:00;27.30;53.30
47174;DHT22;36730;49.036;9.094;2023-07-22T11:53:26;27.30;53.10
47174;DHT22;36730;49.036;9.094;2023-07-22T11:55:53;27.30;53.50
47174;DHT22;36730;49.036;9.094;2023-07-22T11:58:25;27.30;53.40
47174;DHT22;36730;49.036;9.094;2023-07-22T12:01:09;27.40;53.60
47174;DHT22;36730;49.036;9.094;2023-07-22T12:03:35;27.40;53.30
47174;DHT22;36730;49.036;9.094;2023-07-22T12:06:01;27.40;53.30
47174;DHT22;36730;49.036;9.094;2023-07-22T12:08:28;27.50;53.30
47174;DHT22;36730;49.036;9.094;2023-07-22T12:10:59;27.50;53.20
47174;DHT22;36730;49.036;9.094;2023-07-22T12:13:25;27.50;53.60
47174;DHT22;36730;49.036;9.094;2023-07-22T12:16:04;27.60;53.00
47174;DHT22;36730;49.036;9.094;2023-07-22T12:18:42;27.70;52.60
47174;DHT22;36730;49.036;9.094;2023-07-22T12:21:08;27.70;52.70
47174;DHT22;36730;49.036;9.094;2023-07-22T12:23:35;27.70;52.50
47174;DHT22;36730;49.036;9.094;2023-07-22T12:26:01;27.70;53.50
47174;DHT22;36730;49.036;9.094;2023-07-22T12:28:26;27.70;53.00
47174;DHT22;36730;49.036;9.094;2023-07-22T12:30:52;27.80;52.40
47174;DHT22;36730;49.036;9.094;2023-07-22T12:33:17;27.80;52.70
47174;DHT22;36730;49.036;9.094;2023-07-22T12:35:42;27.80;52.00
47174;DHT22;36730;49.036;9.094;2023-07-22T12:38:08;27.90;52.60
47174;DHT22;36730;49.036;9.094;2023-07-22T12:40:33;27.90;51.90
47174;DHT22;36730;49.036;9.094;2023-07-22T12:42:59;27.90;52.30
47174;DHT22;36730;49.036;9.094;2023-07-22T12:45:24;28.00;52.10
47174;DHT22;36730;49.036;9.094;2023-07-22T12:47:50;28.00;52.10
47174;DHT22;36730;49.036;9.094;2023-07-22T12:50:15;28.00;51.60
47174;DHT22;36730;49.036;9.094;2023-07-22T12:52:41;28.10;51.50
47174;DHT22;36730;49.036;9.094;2023-07-22T12:55:06;28.10;52.00
47174;DHT22;36730;49.036;9.094;2023-07-22T12:57:32;28.10;51.30
47174;DHT22;36730;49.036;9.094;2023-07-22T12:59:58;28.10;51.00
47174;DHT22;36730;49.036;9.094;2023-07-22T13:02:23;28.20;51.70
47174;DHT22;36730;49.036;9.094;2023-07-22T13:04:50;28.20;51.10
47174;DHT22;36730;49.036;9.094;2023-07-22T13:07:16;28.20;51.30
47174;DHT22;36730;49.036;9.094;2023-07-22T13:09:41;28.20;51.20
47174;DHT22;36730;49.036;9.094;2023-07-22T13:12:08;28.20;51.60
47174;DHT22;36730;49.036;9.094;2023-07-22T13:14:34;28.30;51.20
47174;DHT22;36730;49.036;9.094;2023-07-22T13:16:59;28.30;51.00
47174;DHT22;36730;49.036;9.094;2023-07-22T13:19:25;28.40;51.00
47174;DHT22;36730;49.036;9.094;2023-07-22T13:21:50;28.40;51.10
47174;DHT22;36730;49.036;9.094;2023-07-22T13:24:16;28.40;50.50
47174;DHT22;36730;49.036;9.094;2023-07-22T13:26:41;28.50;50.50
47174;DHT22;36730;49.036;9.094;2023-07-22T13:29:07;28.50;50.20
47174;DHT22;36730;49.036;9.094;2023-07-22T13:31:34;28.60;50.10
47174;DHT22;36730;49.036;9.094;2023-07-22T13:33:59;28.60;50.40
47174;DHT22;36730;49.036;9.094;2023-07-22T13:36:25;28.70;50.10
47174;DHT22;36730;49.036;9.094;2023-07-22T13:38:50;28.70;49.40
47174;DHT22;36730;49.036;9.094;2023-07-22T13:41:16;28.60;49.60
47174;DHT22;36730;49.036;9.094;2023-07-22T13:43:41;28.70;50.20
47174;DHT22;36730;49.036;9.094;2023-07-22T13:46:06;28.70;49.00
47174;DHT22;36730;49.036;9.094;2023-07-22T13:48:32;28.70;49.50
47174;DHT22;36730;49.036;9.094;2023-07-22T13:50:57;28.70;48.90
47174;DHT22;36730;49.036;9.094;2023-07-22T13:53:23;28.70;48.70
47174;DHT22;36730;49.036;9.094;2023-07-22T13:55:48;28.80;48.70
47174;DHT22;36730;49.036;9.094;2023-07-22T13:58:14;28.80;48.90
47174;DHT22;36730;49.036;9.094;2023-07-22T14:00:39;28.80;47.90
47174;DHT22;36730;49.036;9.094;2023-07-22T14:03:05;28.80;49.10
47174;DHT22;36730;49.036;9.094;2023-07-22T14:05:30;28.80;48.30
47174;DHT22;36730;49.036;9.094;2023-07-22T14:07:56;28.80;47.50
47174;DHT22;36730;49.036;9.094;2023-07-22T14:10:21;28.90;47.40
47174;DHT22;36730;49.036;9.094;2023-07-22T14:12:47;28.90;47.30
47174;DHT22;36730;49.036;9.094;2023-07-22T14:15:12;28.90;47.30
47174;DHT22;36730;49.036;9.094;2023-07-22T14:17:38;28.90;47.60
47174;DHT22;36730;49.036;9.094;2023-07-22T14:20:04;28.90;47.70
47174;DHT22;36730;49.036;9.094;2023-07-22T14:22:30;29.00;48.00
47174;DHT22;36730;49.036;9.094;2023-07-22T14:24:55;29.00;47.90
47174;DHT22;36730;49.036;9.094;2023-07-22T14:27:21;29.00;48.10
47174;DHT22;36730;49.036;9.094;2023-07-22T14:29:46;29.00;47.70
47174;DHT22;36730;49.036;9.094;2023-07-22T14:32:12;29.00;48.50
47174;DHT22;36730;49.036;9.094;2023-07-22T14:34:37;29.00;48.00
47174;DHT22;36730;49.036;9.094;2023-07-22T14:37:03;29.10;48.10
47174;DHT22;36730;49.036;9.094;2023-07-22T14:39:29;29.10;48.50
47174;DHT22;36730;49.036;9.094;2023-07-22T14:41:55;29.10;48.10
47174;DHT22;36730;49.036;9.094;2023-07-22T14:44:20;29.10;48.30
47174;DHT22;36730;49.036;9.094;2023-07-22T14:46:46;29.20;48.50
47174;DHT22;36730;49.036;9.094;2023-07-22T14:49:12;29.20;49.10
47174;DHT22;36730;49.036;9.094;2023-07-22T14:51:37;29.20;48.50
47174;DHT22;36730;49.036;9.094;2023-07-22T14:54:03;29.20;48.40
47174;DHT22;36730;49.036;9.094;2023-07-22T14:56:29;29.20;48.80
47174;DHT22;36730;49.036;9.094;2023-07-22T14:58:54;29.20;48.50
47174;DHT22;36730;49.036;9.094;2023-07-22T15:01:20;29.30;48.70
47174;DHT22;36730;49.036;9.094;2023-07-22T15:03:46;29.30;48.70
47174;DHT22;36730;49.036;9.094;2023-07-22T15:06:12;29.30;48.80
47174;DHT22;36730;49.036;9.094;2023-07-22T15:08:37;29.30;48.90
47174;DHT22;36730;49.036;9.094;2023-07-22T15:11:03;29.30;49.00
47174;DHT22;36730;49.036;9.094;2023-07-22T15:13:28;29.30;48.90
47174;DHT22;36730;49.036;9.094;2023-07-22T15:15:54;29.30;48.90
47174;DHT22;36730;49.036;9.094;2023-07-22T15:18:22;29.30;48.80
47174;DHT22;36730;49.036;9.094;2023-07-22T15:20:50;29.40;48.90
47174;DHT22;36730;49.036;9.094;2023-07-22T15:23:15;29.30;48.70
47174;DHT22;36730;49.036;9.094;2023-07-22T15:25:41;29.40;48.80
47174;DHT22;36730;49.036;9.094;2023-07-22T15:28:06;29.40;48.80
47174;DHT22;36730;49.036;9.094;2023-07-22T15:30:32;29.30;48.70
47174;DHT22;36730;49.036;9.094;2023-07-22T15:32:57;29.40;49.00
47174;DHT22;36730;49.036;9.094;2023-07-22T15:35:23;29.40;48.90